createdAt,value
2022-08-02T00:00:17.230Z,21.00
2022-08-02T00:03:09.501Z,21.00
2022-08-02T00:06:01.949Z,21.00
2022-08-02T00:08:54.751Z,21.10
2022-08-02T00:11:46.982Z,21.10
2022-08-02T00:14:39.257Z,21.10
2022-08-02T00:17:31.496Z,21.10
2022-08-02T00:20:23.753Z,21.00
2022-08-02T00:23:15.982Z,21.10
2022-08-02T00:26:08.467Z,20.90
2022-08-02T00:29:00.644Z,20.80
2022-08-02T00:31:52.836Z,20.70
2022-08-02T00:34:45.050Z,20.80
2022-08-02T00:37:41.532Z,20.80
2022-08-02T00:40:34.113Z,20.70
2022-08-02T00:43:26.317Z,20.70
2022-08-02T00:46:19.938Z,20.70
2022-08-02T00:49:13.339Z,20.70
2022-08-02T00:52:09.313Z,20.60
2022-08-02T00:55:01.706Z,20.60
2022-08-02T00:57:54.438Z,20.50
2022-08-02T01:00:46.677Z,20.40
2022-08-02T01:03:38.909Z,20.40
2022-08-02T01:06:33.289Z,20.40
2022-08-02T01:09:25.879Z,20.30
2022-08-02T01:12:18.302Z,20.30
2022-08-02T01:15:12.087Z,20.10
2022-08-02T01:18:14.216Z,19.70
2022-08-02T01:21:33.841Z,19.50
2022-08-02T01:25:14.998Z,19.50
2022-08-02T01:28:19.173Z,19.40
2022-08-02T01:31:46.303Z,19.40
2022-08-02T01:34:55.235Z,19.30
2022-08-02T01:37:53.168Z,19.30
2022-08-02T01:40:47.177Z,19.40
2022-08-02T01:43:42.418Z,19.40
2022-08-02T01:46:35.442Z,19.40
2022-08-02T01:49:30.006Z,19.40
2022-08-02T01:52:26.302Z,19.50
2022-08-02T01:55:35.149Z,19.40
2022-08-02T01:58:42.669Z,19.10
2022-08-02T02:01:38.442Z,19.10
2022-08-02T02:04:32.759Z,19.00
2022-08-02T02:07:26.098Z,19.10
2022-08-02T02:10:24.683Z,19.10
2022-08-02T02:13:19.607Z,19.10
2022-08-02T02:16:12.998Z,19.10
2022-08-02T02:19:07.169Z,19.00
2022-08-02T02:21:59.414Z,18.90
2022-08-02T02:24:53.899Z,18.90
2022-08-02T02:28:01.195Z,18.80
2022-08-02T02:30:59.939Z,18.70
2022-08-02T02:34:03.203Z,18.70
2022-08-02T02:36:59.450Z,18.80
2022-08-02T02:39:53.043Z,19.00
2022-08-02T02:42:49.472Z,19.00
2022-08-02T02:45:43.652Z,19.00
2022-08-02T02:48:36.815Z,19.10
2022-08-02T02:51:29.819Z,19.10
2022-08-02T02:54:30.588Z,19.00
2022-08-02T02:57:27.123Z,19.00
2022-08-02T03:00:39.350Z,18.90
2022-08-02T03:03:32.604Z,18.90
2022-08-02T03:06:24.843Z,18.90
2022-08-02T03:09:17.085Z,18.90
2022-08-02T03:12:10.707Z,19.00
2022-08-02T03:15:08.295Z,19.10
2022-08-02T03:18:00.520Z,19.00
2022-08-02T03:20:52.767Z,19.00
2022-08-02T03:23:45.126Z,19.10
2022-08-02T03:26:37.852Z,19.10
2022-08-02T03:29:34.293Z,18.80
2022-08-02T03:32:27.298Z,18.70
2022-08-02T03:35:24.167Z,18.80
2022-08-02T03:38:18.930Z,18.70
2022-08-02T03:41:13.792Z,18.80
2022-08-02T03:44:07.555Z,18.80
2022-08-02T03:47:00.062Z,18.90
2022-08-02T03:49:53.352Z,19.20
2022-08-02T03:52:46.984Z,19.70
2022-08-02T03:55:40.336Z,20.40
2022-08-02T03:58:33.502Z,21.00
2022-08-02T04:01:25.754Z,21.10
2022-08-02T04:04:18.135Z,21.70
2022-08-02T04:07:10.327Z,22.50
2022-08-02T04:10:04.345Z,23.20
2022-08-02T04:12:57.242Z,24.00
2022-08-02T04:15:54.041Z,24.50
2022-08-02T04:18:57.163Z,24.50
2022-08-02T04:21:52.882Z,24.10
2022-08-02T04:24:51.903Z,23.50
2022-08-02T04:27:50.333Z,23.00
2022-08-02T04:30:44.514Z,22.60
2022-08-02T04:33:37.722Z,22.40
2022-08-02T04:36:31.215Z,22.60
2022-08-02T04:39:23.963Z,23.20
2022-08-02T04:42:23.494Z,24.30
2022-08-02T04:45:16.767Z,25.90
2022-08-02T04:48:09.554Z,27.40
2022-08-02T04:51:01.807Z,28.50
2022-08-02T04:53:54.207Z,28.90
2022-08-02T04:56:57.695Z,29.50
2022-08-02T04:59:54.411Z,28.90
2022-08-02T05:02:46.873Z,29.00
2022-08-02T05:05:39.093Z,29.70
2022-08-02T05:08:31.383Z,29.90
2022-08-02T05:11:36.588Z,30.40
2022-08-02T05:14:29.523Z,30.50
2022-08-02T05:17:21.772Z,30.50
2022-08-02T05:20:14.476Z,30.60
2022-08-02T05:23:06.783Z,30.50
2022-08-02T05:25:59.084Z,28.90
2022-08-02T05:28:51.282Z,27.90
2022-08-02T05:31:43.842Z,27.80
2022-08-02T05:34:36.085Z,27.50
2022-08-02T05:37:32.234Z,27.50
2022-08-02T05:40:26.153Z,27.50
2022-08-02T05:43:18.590Z,27.70
2022-08-02T05:46:13.458Z,27.60
2022-08-02T05:49:05.743Z,27.90
2022-08-02T05:52:24.197Z,27.80
2022-08-02T05:55:32.558Z,27.90
2022-08-02T05:58:35.639Z,28.20
2022-08-02T06:01:33.581Z,28.50
2022-08-02T06:04:31.449Z,28.40
2022-08-02T06:07:25.509Z,28.20
2022-08-02T06:10:21.433Z,28.30
2022-08-02T06:13:16.828Z,28.60
2022-08-02T06:16:14.138Z,28.90
2022-08-02T06:19:06.869Z,28.80
2022-08-02T06:22:32.484Z,29.40
2022-08-02T06:25:49.620Z,29.70
2022-08-02T06:28:41.680Z,30.30
2022-08-02T06:31:35.142Z,30.50
2022-08-02T06:34:27.402Z,30.70
2022-08-02T06:37:41.863Z,31.00
2022-08-02T06:40:53.340Z,30.70
2022-08-02T06:43:57.340Z,30.10
2022-08-02T06:47:12.057Z,29.50
2022-08-02T06:50:04.756Z,29.20
2022-08-02T06:52:57.183Z,29.20
2022-08-02T06:55:49.381Z,29.70
2022-08-02T06:58:41.625Z,29.80
2022-08-02T07:01:39.011Z,29.60
2022-08-02T07:04:33.709Z,30.20
2022-08-02T07:07:26.961Z,30.30
2022-08-02T07:10:19.178Z,30.20
2022-08-02T07:13:11.737Z,30.20
2022-08-02T07:16:04.950Z,30.10
2022-08-02T07:18:57.138Z,30.40
2022-08-02T07:21:57.652Z,30.50
2022-08-02T07:24:53.821Z,31.00
2022-08-02T07:27:46.049Z,31.00
2022-08-02T07:30:38.627Z,30.30
2022-08-02T07:33:38.922Z,30.10
2022-08-02T07:36:31.844Z,30.20
2022-08-02T07:39:24.509Z,30.00
2022-08-02T07:42:18.881Z,29.80
2022-08-02T07:45:13.795Z,29.30
2022-08-02T07:48:08.475Z,29.30
2022-08-02T07:51:00.755Z,29.80
2022-08-02T07:54:02.208Z,29.90
2022-08-02T07:56:58.172Z,29.90
2022-08-02T07:59:51.642Z,30.20
2022-08-02T08:02:44.641Z,30.70
2022-08-02T08:05:36.971Z,30.50
2022-08-02T08:08:29.355Z,29.80
2022-08-02T08:11:21.688Z,29.30
2022-08-02T08:14:16.808Z,29.50
2022-08-02T08:17:09.376Z,29.90
2022-08-02T08:20:02.675Z,30.40
2022-08-02T08:22:54.909Z,30.30
2022-08-02T08:25:47.534Z,29.90
2022-08-02T08:28:39.775Z,29.40
2022-08-02T08:31:32.069Z,29.50
2022-08-02T08:34:24.890Z,29.40
2022-08-02T08:37:18.032Z,29.30
2022-08-02T08:40:12.346Z,29.50
2022-08-02T08:43:05.399Z,30.00
2022-08-02T08:45:57.633Z,30.40
2022-08-02T08:48:52.794Z,29.90
2022-08-02T08:51:45.266Z,29.50
2022-08-02T08:54:38.869Z,29.20
2022-08-02T08:57:32.243Z,28.90
2022-08-02T09:00:24.566Z,29.20
2022-08-02T09:03:16.913Z,29.20
2022-08-02T09:06:17.890Z,29.70
2022-08-02T09:09:10.154Z,29.80
2022-08-02T09:12:19.648Z,29.30
2022-08-02T09:15:15.850Z,29.10
2022-08-02T09:18:09.139Z,29.60
2022-08-02T09:21:06.493Z,30.40
2022-08-02T09:23:58.691Z,30.20
2022-08-02T09:26:51.818Z,29.70
2022-08-02T09:30:13.650Z,29.60
2022-08-02T09:33:06.375Z,30.10
2022-08-02T09:36:08.354Z,30.80
2022-08-02T09:39:02.486Z,30.50
2022-08-02T09:42:10.641Z,30.30
2022-08-02T09:45:03.870Z,30.50
2022-08-02T09:47:56.049Z,30.60
2022-08-02T09:50:48.657Z,31.10
2022-08-02T09:53:41.232Z,31.60
2022-08-02T09:56:42.357Z,31.30
2022-08-02T09:59:34.745Z,31.00
2022-08-02T10:02:27.085Z,30.90
2022-08-02T10:05:20.738Z,30.50
2022-08-02T10:08:15.292Z,30.70
2022-08-02T10:11:07.501Z,31.20
2022-08-02T10:14:00.976Z,31.60
2022-08-02T10:16:54.836Z,31.50
2022-08-02T10:20:01.834Z,30.70
2022-08-02T10:22:58.921Z,30.40
2022-08-02T10:25:53.407Z,30.30
2022-08-02T10:28:48.425Z,30.30
2022-08-02T10:31:57.427Z,30.50
2022-08-02T10:34:55.342Z,30.60
2022-08-02T10:37:55.033Z,31.10
2022-08-02T10:40:49.136Z,31.10
2022-08-02T10:43:43.823Z,31.20
2022-08-02T10:46:37.246Z,31.80
2022-08-02T10:49:44.686Z,32.00
2022-08-02T10:52:36.956Z,31.40
2022-08-02T10:55:45.180Z,31.00
2022-08-02T10:58:37.354Z,30.40
2022-08-02T11:01:38.675Z,30.20
2022-08-02T11:04:53.191Z,30.20
2022-08-02T11:07:49.677Z,30.80
2022-08-02T11:10:42.099Z,31.10
2022-08-02T11:14:02.968Z,31.40
2022-08-02T11:16:55.345Z,31.50
2022-08-02T11:20:13.565Z,31.30
2022-08-02T11:23:45.150Z,30.80
2022-08-02T11:26:38.046Z,30.10
2022-08-02T11:29:50.939Z,30.20
2022-08-02T11:32:43.271Z,30.50
2022-08-02T11:35:39.995Z,30.70
2022-08-02T11:38:32.869Z,30.70
2022-08-02T11:41:46.485Z,30.50
2022-08-02T11:44:42.175Z,30.40
2022-08-02T11:47:44.767Z,30.40
2022-08-02T11:50:37.080Z,30.80
2022-08-02T11:53:29.296Z,31.00
2022-08-02T11:56:35.252Z,31.00
2022-08-02T11:59:27.439Z,30.50
2022-08-02T12:02:25.594Z,30.40
2022-08-02T12:05:20.592Z,30.40
2022-08-02T12:08:12.767Z,30.70
2022-08-02T12:11:05.248Z,30.90
2022-08-02T12:13:57.729Z,30.90
2022-08-02T12:17:09.340Z,30.80
2022-08-02T12:20:01.541Z,30.60
2022-08-02T12:22:53.794Z,30.10
2022-08-02T12:25:46.021Z,30.20
2022-08-02T12:28:40.432Z,30.50
2022-08-02T12:31:55.986Z,30.80
2022-08-02T12:35:01.904Z,31.20
2022-08-02T12:37:54.349Z,31.40
2022-08-02T12:40:47.083Z,31.50
2022-08-02T12:43:43.332Z,31.40
2022-08-02T12:46:42.205Z,31.30
2022-08-02T12:49:38.258Z,31.40
2022-08-02T12:52:32.091Z,31.30
2022-08-02T12:56:00.830Z,30.60
2022-08-02T12:58:52.500Z,30.50
2022-08-02T13:01:45.771Z,30.50
2022-08-02T13:04:38.296Z,30.60
2022-08-02T13:07:30.481Z,30.60
2022-08-02T13:10:23.071Z,30.70
2022-08-02T13:13:15.435Z,30.40
2022-08-02T13:16:09.614Z,30.50
2022-08-02T13:19:01.820Z,30.30
2022-08-02T13:22:02.368Z,30.40
2022-08-02T13:24:57.033Z,30.30
2022-08-02T13:27:50.325Z,30.50
2022-08-02T13:30:42.688Z,30.70
2022-08-02T13:33:34.906Z,30.90
2022-08-02T13:36:27.087Z,30.80
2022-08-02T13:39:19.235Z,31.00
2022-08-02T13:42:15.641Z,31.10
2022-08-02T13:45:12.642Z,31.00
2022-08-02T13:48:16.788Z,31.00
2022-08-02T13:51:14.836Z,31.00
2022-08-02T13:54:07.246Z,30.90
2022-08-02T13:57:00.241Z,30.70
2022-08-02T13:59:56.759Z,30.30
2022-08-02T14:02:51.295Z,30.40
2022-08-02T14:05:48.442Z,30.60
2022-08-02T14:08:41.121Z,30.60
2022-08-02T14:11:33.376Z,30.40
2022-08-02T14:14:25.987Z,30.30
2022-08-02T14:17:18.949Z,30.30
2022-08-02T14:20:18.028Z,30.30
2022-08-02T14:23:12.702Z,30.20
2022-08-02T14:26:05.563Z,30.00
2022-08-02T14:28:57.838Z,30.00
2022-08-02T14:31:50.013Z,30.00
2022-08-02T14:34:44.245Z,29.90
2022-08-02T14:37:36.614Z,30.00
2022-08-02T14:40:31.738Z,30.10
2022-08-02T14:43:42.614Z,30.10
2022-08-02T14:46:42.565Z,30.00
2022-08-02T14:49:38.226Z,30.00
2022-08-02T14:52:33.601Z,29.90
2022-08-02T14:55:25.797Z,30.00
2022-08-02T14:58:18.021Z,30.00
2022-08-02T15:01:10.283Z,29.90
2022-08-02T15:04:06.152Z,29.90
2022-08-02T15:06:58.350Z,30.00
2022-08-02T15:09:50.726Z,30.10
2022-08-02T15:12:43.135Z,29.90
2022-08-02T15:15:40.551Z,29.80
2022-08-02T15:18:36.180Z,29.70
2022-08-02T15:21:41.757Z,29.60
2022-08-02T15:24:34.610Z,29.70
2022-08-02T15:27:26.829Z,29.70
2022-08-02T15:30:19.409Z,29.60
2022-08-02T15:33:11.597Z,29.50
2022-08-02T15:36:04.862Z,29.50
2022-08-02T15:38:57.900Z,29.30
2022-08-02T15:41:50.148Z,29.20
2022-08-02T15:44:42.617Z,29.30
2022-08-02T15:47:35.451Z,29.30
2022-08-02T15:50:27.770Z,29.30
2022-08-02T15:53:19.942Z,29.20
2022-08-02T15:56:13.084Z,29.20
2022-08-02T15:59:05.713Z,29.20
2022-08-02T16:01:57.982Z,29.10
2022-08-02T16:04:50.279Z,29.10
2022-08-02T16:07:42.473Z,29.00
2022-08-02T16:10:35.018Z,29.00
2022-08-02T16:13:53.325Z,29.10
2022-08-02T16:16:46.191Z,29.10
2022-08-02T16:19:48.363Z,29.00
2022-08-02T16:22:41.713Z,29.00
2022-08-02T16:25:35.758Z,29.00
2022-08-02T16:28:31.013Z,28.90
2022-08-02T16:31:23.979Z,28.90
2022-08-02T16:34:22.492Z,28.90
2022-08-02T16:37:15.158Z,28.80
2022-08-02T16:40:08.292Z,28.70
2022-08-02T16:43:01.510Z,28.60
2022-08-02T16:45:53.989Z,28.60
2022-08-02T16:48:51.200Z,28.70
2022-08-02T16:51:43.694Z,28.70
2022-08-02T16:54:41.466Z,28.60
2022-08-02T16:57:42.721Z,28.50
2022-08-02T17:00:38.402Z,28.40
2022-08-02T17:03:57.114Z,28.30
2022-08-02T17:06:51.947Z,28.30
2022-08-02T17:10:01.957Z,28.30
2022-08-02T17:12:57.255Z,28.20
2022-08-02T17:16:16.657Z,28.10
2022-08-02T17:19:01.594Z,28.00
2022-08-02T17:21:53.778Z,28.00
2022-08-02T17:24:47.773Z,28.00
2022-08-02T17:27:40.907Z,28.00
2022-08-02T17:30:33.104Z,27.90
2022-08-02T17:33:25.968Z,27.70
2022-08-02T17:36:18.364Z,27.60
2022-08-02T17:39:10.970Z,27.60
2022-08-02T17:42:04.933Z,27.50
2022-08-02T17:45:07.114Z,27.40
2022-08-02T17:48:09.232Z,27.30
2022-08-02T17:51:07.164Z,27.20
2022-08-02T17:54:02.923Z,27.20
2022-08-02T17:56:55.483Z,27.10
2022-08-02T18:00:03.528Z,27.10
2022-08-02T18:02:56.668Z,26.90
2022-08-02T18:05:53.137Z,26.80
2022-08-02T18:09:01.294Z,26.80
2022-08-02T18:11:57.272Z,26.80
2022-08-02T18:14:50.159Z,26.70
2022-08-02T18:17:42.437Z,26.60
2022-08-02T18:20:34.662Z,26.50
2022-08-02T18:23:27.389Z,26.50
2022-08-02T18:26:20.851Z,26.50
2022-08-02T18:29:13.206Z,26.40
2022-08-02T18:32:06.317Z,26.30
2022-08-02T18:35:04.596Z,26.20
2022-08-02T18:38:03.459Z,26.10
2022-08-02T18:40:58.747Z,26.00
2022-08-02T18:43:51.328Z,25.90
2022-08-02T18:46:43.718Z,25.90
2022-08-02T18:49:45.947Z,25.90
2022-08-02T18:52:39.133Z,25.90
2022-08-02T18:55:59.999Z,25.80
2022-08-02T18:58:45.066Z,25.60
2022-08-02T19:01:48.670Z,25.50
2022-08-02T19:04:43.720Z,25.30
2022-08-02T19:07:50.823Z,25.20
2022-08-02T19:10:49.018Z,25.10
2022-08-02T19:16:53.836Z,24.90
2022-08-02T19:19:46.128Z,24.80
2022-08-02T19:22:39.327Z,24.70
2022-08-02T19:25:35.354Z,24.60
2022-08-02T19:28:28.018Z,24.50
2022-08-02T19:31:20.298Z,24.50
2022-08-02T19:34:12.574Z,24.30
2022-08-02T19:37:04.789Z,24.30
2022-08-02T19:40:05.776Z,24.40
2022-08-02T19:44:27.473Z,24.40
2022-08-02T19:46:15.860Z,24.30
2022-08-02T19:49:20.232Z,24.30
2022-08-02T19:52:25.092Z,24.30
2022-08-02T19:55:59.488Z,24.20
2022-08-02T19:58:30.994Z,24.10
2022-08-02T20:01:36.988Z,24.10
2022-08-02T20:04:31.835Z,24.00
2022-08-02T20:07:54.453Z,24.00
2022-08-02T20:10:37.280Z,24.00
2022-08-02T20:13:34.554Z,23.90
2022-08-02T20:16:39.529Z,23.80
2022-08-02T20:19:34.242Z,23.80
2022-08-02T20:22:27.521Z,23.80
2022-08-02T20:25:20.286Z,23.80
2022-08-02T20:28:13.876Z,23.70
2022-08-02T20:31:09.132Z,23.70
2022-08-02T20:34:01.616Z,23.60
2022-08-02T20:36:54.349Z,23.50
2022-08-02T20:39:47.071Z,23.40
2022-08-02T20:42:39.289Z,23.40
2022-08-02T20:45:31.482Z,23.30
2022-08-02T20:48:29.912Z,23.30
2022-08-02T20:51:33.263Z,23.30
2022-08-02T20:54:26.062Z,23.40
2022-08-02T20:57:18.443Z,23.30
2022-08-02T21:00:11.658Z,23.30
2022-08-02T21:03:05.192Z,23.30
2022-08-02T21:05:58.211Z,23.20
2022-08-02T21:08:50.431Z,23.10
2022-08-02T21:11:42.841Z,22.90
2022-08-02T21:14:43.220Z,22.70
2022-08-02T21:17:45.980Z,22.50
2022-08-02T21:20:44.026Z,22.50
2022-08-02T21:23:37.742Z,22.60
2022-08-02T21:26:31.191Z,22.60
2022-08-02T21:29:24.790Z,22.70
2022-08-02T21:32:24.550Z,22.60
2022-08-02T21:35:18.169Z,22.40
2022-08-02T21:38:10.456Z,22.40
2022-08-02T21:41:22.696Z,22.30
2022-08-02T21:44:20.184Z,22.20
2022-08-02T21:47:16.601Z,22.20
2022-08-02T21:50:16.011Z,22.10
2022-08-02T21:53:08.821Z,22.00
2022-08-02T21:56:05.615Z,22.00
2022-08-02T21:59:15.801Z,22.00
2022-08-02T22:02:09.048Z,22.00
2022-08-02T22:05:02.565Z,22.00
2022-08-02T22:07:55.524Z,21.70
2022-08-02T22:11:16.870Z,21.60
2022-08-02T22:14:09.360Z,21.60
2022-08-02T22:17:08.813Z,21.70
2022-08-02T22:20:06.409Z,21.70
2022-08-02T22:22:59.446Z,21.30
2022-08-02T22:25:53.460Z,21.30
2022-08-02T22:28:51.730Z,21.30
2022-08-02T22:31:45.165Z,21.30
2022-08-02T22:34:51.759Z,21.30
2022-08-02T22:38:16.885Z,21.30
2022-08-02T22:40:56.691Z,21.30
2022-08-02T22:43:49.471Z,21.40
2022-08-02T22:46:42.050Z,21.40
2022-08-02T22:49:38.783Z,21.40
2022-08-02T22:52:46.809Z,21.30
2022-08-02T22:55:42.511Z,21.10
2022-08-02T22:58:47.333Z,25.10
2022-08-02T22:59:05.534Z,21.10
2022-08-02T23:01:47.069Z,21.10
2022-08-02T23:04:39.412Z,21.00
2022-08-02T23:07:38.819Z,21.00
2022-08-02T23:10:31.373Z,21.00
2022-08-02T23:13:28.203Z,21.10
2022-08-02T23:16:39.570Z,21.00
2022-08-02T23:19:50.502Z,21.00
2022-08-02T23:22:42.784Z,21.00
2022-08-02T23:25:35.512Z,20.90
2022-08-02T23:28:27.926Z,20.80
2022-08-02T23:31:37.438Z,20.70
2022-08-02T23:34:30.552Z,20.60
2022-08-02T23:37:23.252Z,20.60
2022-08-02T23:40:15.465Z,20.60
2022-08-02T23:43:23.704Z,20.60
2022-08-02T23:46:15.964Z,20.50
2022-08-02T23:49:08.173Z,20.40
2022-08-02T23:52:01.945Z,20.40
2022-08-02T23:54:54.416Z,20.40
2022-08-02T23:57:46.568Z,20.30
